Milford on Sea, United Kingdom
Current Conditions -  °F | °C
As of 12:20 AM on Thursday 23 Oct 2014 (Local Time) from EGHH Reporting Station
Overcast Overcast  
Wind Chill: 13°   Ceiling: 3100
Heat Index: 13°   Visibility: 6mi
Dew Point:   Wind: 7mph
Humidity: 72%   Direction: 240°WSW
Pressure: 30.24"   Gusts: NA
Location:  50.73°N, 1.59°W
Report Text: EGHH 222320Z 24006KT 9999 OVC031 13/08 Q1024
Loading
Personal Weather Stations






























Interactive Weather Map
Tropical Storm Tracking
New forecast layout! Learn more

10-Day Weather Forecast

Advertisements
Track Severe Weather on mobile